sensor_id;sensor_type;location;lat;lon;timestamp;P1;durP1;ratioP1;P2;durP2;ratioP2
79790;SDS011;69278;52.220;5.172;2023-05-10T00:00:40;45.03;;;17.52;;
79790;SDS011;69278;52.220;5.172;2023-05-10T00:03:06;47.45;;;17.45;;
79790;SDS011;69278;52.220;5.172;2023-05-10T00:05:33;47.63;;;17.63;;
79790;SDS011;69278;52.220;5.172;2023-05-10T00:07:59;45.80;;;17.17;;
79790;SDS011;69278;52.220;5.172;2023-05-10T00:10:25;49.25;;;18.50;;
79790;SDS011;69278;52.220;5.172;2023-05-10T00:12:52;46.58;;;17.75;;
79790;SDS011;69278;52.220;5.172;2023-05-10T00:15:19;45.78;;;18.48;;
79790;SDS011;69278;52.220;5.172;2023-05-10T00:17:45;50.38;;;18.02;;
79790;SDS011;69278;52.220;5.172;2023-05-10T00:20:11;47.83;;;17.50;;
79790;SDS011;69278;52.220;5.172;2023-05-10T00:22:38;46.88;;;17.60;;
79790;SDS011;69278;52.220;5.172;2023-05-10T00:25:05;48.95;;;17.05;;
79790;SDS011;69278;52.220;5.172;2023-05-10T00:27:32;48.10;;;17.17;;
79790;SDS011;69278;52.220;5.172;2023-05-10T00:29:58;49.22;;;18.45;;
79790;SDS011;69278;52.220;5.172;2023-05-10T00:32:25;50.63;;;18.10;;
79790;SDS011;69278;52.220;5.172;2023-05-10T00:34:52;53.75;;;17.80;;
79790;SDS011;69278;52.220;5.172;2023-05-10T00:37:18;54.30;;;19.10;;
79790;SDS011;69278;52.220;5.172;2023-05-10T00:39:47;51.67;;;18.40;;
79790;SDS011;69278;52.220;5.172;2023-05-10T00:42:13;52.78;;;19.48;;
79790;SDS011;69278;52.220;5.172;2023-05-10T00:44:40;51.90;;;18.77;;
79790;SDS011;69278;52.220;5.172;2023-05-10T00:47:06;47.15;;;18.33;;
79790;SDS011;69278;52.220;5.172;2023-05-10T00:49:34;51.00;;;19.70;;
79790;SDS011;69278;52.220;5.172;2023-05-10T00:52:01;50.00;;;19.20;;
79790;SDS011;69278;52.220;5.172;2023-05-10T00:54:29;49.42;;;19.25;;
79790;SDS011;69278;52.220;5.172;2023-05-10T00:56:56;49.27;;;19.13;;
79790;SDS011;69278;52.220;5.172;2023-05-10T00:59:23;50.15;;;18.50;;
79790;SDS011;69278;52.220;5.172;2023-05-10T01:01:49;52.45;;;18.42;;
79790;SDS011;69278;52.220;5.172;2023-05-10T01:04:17;51.92;;;18.88;;
79790;SDS011;69278;52.220;5.172;2023-05-10T01:06:46;51.83;;;19.23;;
79790;SDS011;69278;52.220;5.172;2023-05-10T01:09:12;48.07;;;18.77;;
79790;SDS011;69278;52.220;5.172;2023-05-10T01:11:39;51.55;;;19.17;;
79790;SDS011;69278;52.220;5.172;2023-05-10T01:14:06;50.92;;;20.10;;
79790;SDS011;69278;52.220;5.172;2023-05-10T01:16:34;49.92;;;21.17;;
79790;SDS011;69278;52.220;5.172;2023-05-10T01:19:06;48.80;;;21.60;;
79790;SDS011;69278;52.220;5.172;2023-05-10T01:28:39;54.42;;;23.23;;
79790;SDS011;69278;52.220;5.172;2023-05-10T01:33:39;50.45;;;22.90;;
79790;SDS011;69278;52.220;5.172;2023-05-10T01:36:16;52.90;;;23.10;;
79790;SDS011;69278;52.220;5.172;2023-05-10T01:44:29;59.08;;;24.55;;
79790;SDS011;69278;52.220;5.172;2023-05-10T01:47:06;56.35;;;23.65;;
79790;SDS011;69278;52.220;5.172;2023-05-10T01:49:46;54.47;;;23.27;;
79790;SDS011;69278;52.220;5.172;2023-05-10T01:52:18;57.92;;;23.15;;
79790;SDS011;69278;52.220;5.172;2023-05-10T01:54:49;53.92;;;23.42;;
79790;SDS011;69278;52.220;5.172;2023-05-10T01:57:22;58.22;;;24.08;;
79790;SDS011;69278;52.220;5.172;2023-05-10T01:59:53;59.13;;;23.80;;
79790;SDS011;69278;52.220;5.172;2023-05-10T02:02:21;62.60;;;23.33;;
79790;SDS011;69278;52.220;5.172;2023-05-10T02:04:50;60.60;;;22.88;;
79790;SDS011;69278;52.220;5.172;2023-05-10T02:07:19;65.47;;;23.85;;
79790;SDS011;69278;52.220;5.172;2023-05-10T02:09:47;63.92;;;23.73;;
79790;SDS011;69278;52.220;5.172;2023-05-10T02:12:15;61.17;;;23.98;;
79790;SDS011;69278;52.220;5.172;2023-05-10T02:14:43;59.87;;;23.00;;
79790;SDS011;69278;52.220;5.172;2023-05-10T02:17:11;61.10;;;23.98;;
79790;SDS011;69278;52.220;5.172;2023-05-10T02:19:40;60.45;;;23.58;;
79790;SDS011;69278;52.220;5.172;2023-05-10T02:22:08;58.63;;;23.05;;
79790;SDS011;69278;52.220;5.172;2023-05-10T02:24:35;55.42;;;23.45;;
79790;SDS011;69278;52.220;5.172;2023-05-10T02:27:03;58.03;;;23.63;;
79790;SDS011;69278;52.220;5.172;2023-05-10T02:29:31;56.90;;;23.48;;
79790;SDS011;69278;52.220;5.172;2023-05-10T02:31:58;59.13;;;24.58;;
79790;SDS011;69278;52.220;5.172;2023-05-10T02:34:28;56.25;;;24.23;;
79790;SDS011;69278;52.220;5.172;2023-05-10T02:36:57;60.65;;;24.67;;
79790;SDS011;69278;52.220;5.172;2023-05-10T02:39:25;55.17;;;23.47;;
79790;SDS011;69278;52.220;5.172;2023-05-10T02:41:54;53.67;;;22.95;;
79790;SDS011;69278;52.220;5.172;2023-05-10T02:44:23;57.58;;;23.98;;
79790;SDS011;69278;52.220;5.172;2023-05-10T02:46:54;46.90;;;20.38;;
79790;SDS011;69278;52.220;5.172;2023-05-10T02:49:22;48.42;;;20.77;;
79790;SDS011;69278;52.220;5.172;2023-05-10T02:51:49;51.93;;;21.50;;
79790;SDS011;69278;52.220;5.172;2023-05-10T02:54:24;56.13;;;23.25;;
79790;SDS011;69278;52.220;5.172;2023-05-10T02:56:59;58.88;;;23.42;;
79790;SDS011;69278;52.220;5.172;2023-05-10T02:59:29;58.97;;;22.23;;
79790;SDS011;69278;52.220;5.172;2023-05-10T03:01:55;59.55;;;23.63;;
79790;SDS011;69278;52.220;5.172;2023-05-10T03:04:21;65.97;;;25.40;;
79790;SDS011;69278;52.220;5.172;2023-05-10T03:06:48;66.90;;;24.20;;
79790;SDS011;69278;52.220;5.172;2023-05-10T03:09:15;66.50;;;23.73;;
79790;SDS011;69278;52.220;5.172;2023-05-10T03:11:55;73.55;;;24.27;;
79790;SDS011;69278;52.220;5.172;2023-05-10T03:17:23;75.67;;;22.97;;
79790;SDS011;69278;52.220;5.172;2023-05-10T03:19:57;69.60;;;21.95;;
79790;SDS011;69278;52.220;5.172;2023-05-10T03:22:34;74.60;;;22.63;;
79790;SDS011;69278;52.220;5.172;2023-05-10T03:25:06;77.60;;;22.63;;
79790;SDS011;69278;52.220;5.172;2023-05-10T03:27:35;75.72;;;22.38;;
79790;SDS011;69278;52.220;5.172;2023-05-10T03:30:04;81.57;;;22.70;;
79790;SDS011;69278;52.220;5.172;2023-05-10T03:32:32;72.82;;;21.98;;
79790;SDS011;69278;52.220;5.172;2023-05-10T03:35:00;74.60;;;21.90;;
79790;SDS011;69278;52.220;5.172;2023-05-10T03:37:28;76.57;;;22.02;;
79790;SDS011;69278;52.220;5.172;2023-05-10T03:39:54;67.70;;;21.67;;
79790;SDS011;69278;52.220;5.172;2023-05-10T03:42:21;70.00;;;20.37;;
79790;SDS011;69278;52.220;5.172;2023-05-10T03:44:47;66.75;;;21.00;;
79790;SDS011;69278;52.220;5.172;2023-05-10T03:47:15;58.80;;;18.30;;
79790;SDS011;69278;52.220;5.172;2023-05-10T03:49:42;65.50;;;19.83;;
79790;SDS011;69278;52.220;5.172;2023-05-10T03:52:08;69.55;;;20.45;;
79790;SDS011;69278;52.220;5.172;2023-05-10T03:54:35;68.77;;;19.80;;
79790;SDS011;69278;52.220;5.172;2023-05-10T03:57:01;62.95;;;19.85;;
79790;SDS011;69278;52.220;5.172;2023-05-10T03:59:29;71.13;;;21.42;;
79790;SDS011;69278;52.220;5.172;2023-05-10T04:01:56;61.53;;;21.30;;
79790;SDS011;69278;52.220;5.172;2023-05-10T04:04:22;47.40;;;17.75;;
79790;SDS011;69278;52.220;5.172;2023-05-10T04:06:49;52.20;;;20.20;;
79790;SDS011;69278;52.220;5.172;2023-05-10T04:09:15;49.55;;;19.27;;
79790;SDS011;69278;52.220;5.172;2023-05-10T04:11:43;53.25;;;19.80;;
79790;SDS011;69278;52.220;5.172;2023-05-10T04:14:09;55.20;;;20.67;;
79790;SDS011;69278;52.220;5.172;2023-05-10T04:16:36;55.75;;;20.67;;
79790;SDS011;69278;52.220;5.172;2023-05-10T04:19:02;62.67;;;21.27;;
79790;SDS011;69278;52.220;5.172;2023-05-10T04:21:29;58.42;;;21.90;;
79790;SDS011;69278;52.220;5.172;2023-05-10T04:23:56;60.40;;;21.60;;
79790;SDS011;69278;52.220;5.172;2023-05-10T04:26:23;57.10;;;20.05;;
79790;SDS011;69278;52.220;5.172;2023-05-10T04:28:54;55.95;;;20.02;;
79790;SDS011;69278;52.220;5.172;2023-05-10T04:31:20;58.77;;;19.53;;
79790;SDS011;69278;52.220;5.172;2023-05-10T04:33:47;58.95;;;18.75;;
79790;SDS011;69278;52.220;5.172;2023-05-10T04:36:14;51.70;;;16.45;;
79790;SDS011;69278;52.220;5.172;2023-05-10T04:38:40;57.28;;;18.17;;
79790;SDS011;69278;52.220;5.172;2023-05-10T04:41:07;54.30;;;16.98;;
79790;SDS011;69278;52.220;5.172;2023-05-10T04:43:34;57.50;;;17.70;;
79790;SDS011;69278;52.220;5.172;2023-05-10T04:46:01;56.42;;;17.70;;
79790;SDS011;69278;52.220;5.172;2023-05-10T04:48:28;60.65;;;18.65;;
79790;SDS011;69278;52.220;5.172;2023-05-10T04:50:58;58.72;;;18.92;;
79790;SDS011;69278;52.220;5.172;2023-05-10T04:53:24;55.85;;;18.45;;
79790;SDS011;69278;52.220;5.172;2023-05-10T04:55:51;65.77;;;19.73;;
79790;SDS011;69278;52.220;5.172;2023-05-10T04:58:17;65.32;;;20.33;;
79790;SDS011;69278;52.220;5.172;2023-05-10T05:00:44;64.10;;;21.27;;
79790;SDS011;69278;52.220;5.172;2023-05-10T05:03:10;58.53;;;19.75;;
79790;SDS011;69278;52.220;5.172;2023-05-10T05:05:37;57.47;;;20.55;;
79790;SDS011;69278;52.220;5.172;2023-05-10T05:08:03;59.33;;;20.93;;
79790;SDS011;69278;52.220;5.172;2023-05-10T05:10:30;54.08;;;19.98;;
79790;SDS011;69278;52.220;5.172;2023-05-10T05:12:56;52.35;;;19.75;;
79790;SDS011;69278;52.220;5.172;2023-05-10T05:15:23;54.25;;;18.30;;
79790;SDS011;69278;52.220;5.172;2023-05-10T05:17:49;51.17;;;17.45;;
79790;SDS011;69278;52.220;5.172;2023-05-10T05:20:16;42.00;;;14.30;;
79790;SDS011;69278;52.220;5.172;2023-05-10T05:22:43;41.70;;;14.18;;
79790;SDS011;69278;52.220;5.172;2023-05-10T05:25:09;37.25;;;14.15;;
79790;SDS011;69278;52.220;5.172;2023-05-10T05:27:36;32.10;;;12.50;;
79790;SDS011;69278;52.220;5.172;2023-05-10T05:30:03;27.83;;;11.70;;
79790;SDS011;69278;52.220;5.172;2023-05-10T05:32:30;29.57;;;11.87;;
79790;SDS011;69278;52.220;5.172;2023-05-10T05:34:56;27.40;;;11.63;;
79790;SDS011;69278;52.220;5.172;2023-05-10T05:37:23;25.83;;;11.35;;
79790;SDS011;69278;52.220;5.172;2023-05-10T05:39:50;27.42;;;10.98;;
79790;SDS011;69278;52.220;5.172;2023-05-10T05:42:17;27.13;;;11.70;;
79790;SDS011;69278;52.220;5.172;2023-05-10T05:44:45;28.07;;;11.37;;
79790;SDS011;69278;52.220;5.172;2023-05-10T05:47:11;23.77;;;10.32;;
79790;SDS011;69278;52.220;5.172;2023-05-10T05:49:38;22.63;;;11.00;;
79790;SDS011;69278;52.220;5.172;2023-05-10T05:52:05;22.80;;;10.05;;
79790;SDS011;69278;52.220;5.172;2023-05-10T05:54:31;25.45;;;10.60;;
79790;SDS011;69278;52.220;5.172;2023-05-10T05:56:58;24.07;;;10.00;;
79790;SDS011;69278;52.220;5.172;2023-05-10T05:59:26;23.08;;;9.70;;
79790;SDS011;69278;52.220;5.172;2023-05-10T06:01:53;20.80;;;9.07;;
79790;SDS011;69278;52.220;5.172;2023-05-10T06:04:20;23.48;;;9.50;;
79790;SDS011;69278;52.220;5.172;2023-05-10T06:06:46;21.38;;;8.82;;
79790;SDS011;69278;52.220;5.172;2023-05-10T06:09:13;20.63;;;9.33;;
79790;SDS011;69278;52.220;5.172;2023-05-10T06:11:40;18.77;;;8.35;;
79790;SDS011;69278;52.220;5.172;2023-05-10T06:14:06;23.73;;;10.43;;
79790;SDS011;69278;52.220;5.172;2023-05-10T06:16:34;28.00;;;10.80;;
79790;SDS011;69278;52.220;5.172;2023-05-10T06:19:01;28.25;;;11.40;;
79790;SDS011;69278;52.220;5.172;2023-05-10T06:21:28;29.47;;;11.27;;
79790;SDS011;69278;52.220;5.172;2023-05-10T06:23:55;30.17;;;10.68;;
79790;SDS011;69278;52.220;5.172;2023-05-10T06:26:21;29.38;;;10.80;;
79790;SDS011;69278;52.220;5.172;2023-05-10T06:28:48;24.42;;;9.43;;
79790;SDS011;69278;52.220;5.172;2023-05-10T06:31:14;26.27;;;9.68;;
79790;SDS011;69278;52.220;5.172;2023-05-10T06:33:41;25.73;;;10.40;;
79790;SDS011;69278;52.220;5.172;2023-05-10T06:36:07;29.02;;;11.07;;
79790;SDS011;69278;52.220;5.172;2023-05-10T06:38:34;27.02;;;10.95;;
79790;SDS011;69278;52.220;5.172;2023-05-10T06:41:00;28.98;;;11.18;;
79790;SDS011;69278;52.220;5.172;2023-05-10T06:43:27;29.08;;;11.27;;
79790;SDS011;69278;52.220;5.172;2023-05-10T06:45:55;28.33;;;11.03;;
79790;SDS011;69278;52.220;5.172;2023-05-10T06:48:21;25.08;;;10.38;;
79790;SDS011;69278;52.220;5.172;2023-05-10T06:50:48;27.55;;;11.10;;
79790;SDS011;69278;52.220;5.172;2023-05-10T06:53:14;23.70;;;9.90;;
79790;SDS011;69278;52.220;5.172;2023-05-10T06:55:41;23.92;;;9.82;;
79790;SDS011;69278;52.220;5.172;2023-05-10T06:58:07;23.50;;;9.87;;
79790;SDS011;69278;52.220;5.172;2023-05-10T07:00:34;22.63;;;9.38;;
79790;SDS011;69278;52.220;5.172;2023-05-10T07:03:01;23.02;;;8.98;;
79790;SDS011;69278;52.220;5.172;2023-05-10T07:05:27;21.80;;;9.60;;
79790;SDS011;69278;52.220;5.172;2023-05-10T07:07:54;22.02;;;9.48;;
79790;SDS011;69278;52.220;5.172;2023-05-10T07:10:20;21.83;;;9.57;;
79790;SDS011;69278;52.220;5.172;2023-05-10T07:12:47;22.08;;;10.18;;
79790;SDS011;69278;52.220;5.172;2023-05-10T07:15:14;23.60;;;10.13;;
79790;SDS011;69278;52.220;5.172;2023-05-10T07:17:42;24.95;;;10.27;;
79790;SDS011;69278;52.220;5.172;2023-05-10T07:20:11;23.70;;;10.27;;
79790;SDS011;69278;52.220;5.172;2023-05-10T07:22:38;21.53;;;9.97;;
79790;SDS011;69278;52.220;5.172;2023-05-10T07:25:04;22.70;;;10.20;;
79790;SDS011;69278;52.220;5.172;2023-05-10T07:27:31;22.88;;;10.48;;
79790;SDS011;69278;52.220;5.172;2023-05-10T07:29:58;22.23;;;10.13;;
79790;SDS011;69278;52.220;5.172;2023-05-10T07:32:25;24.67;;;10.25;;
79790;SDS011;69278;52.220;5.172;2023-05-10T07:34:51;20.10;;;9.83;;
79790;SDS011;69278;52.220;5.172;2023-05-10T07:37:18;22.77;;;9.88;;
79790;SDS011;69278;52.220;5.172;2023-05-10T07:39:44;24.45;;;10.13;;
79790;SDS011;69278;52.220;5.172;2023-05-10T07:42:11;21.13;;;9.82;;
79790;SDS011;69278;52.220;5.172;2023-05-10T07:44:37;21.15;;;9.55;;
79790;SDS011;69278;52.220;5.172;2023-05-10T07:47:04;20.10;;;9.17;;
79790;SDS011;69278;52.220;5.172;2023-05-10T07:49:30;23.50;;;9.48;;
79790;SDS011;69278;52.220;5.172;2023-05-10T07:51:57;20.08;;;9.50;;
79790;SDS011;69278;52.220;5.172;2023-05-10T07:54:23;20.52;;;9.35;;
79790;SDS011;69278;52.220;5.172;2023-05-10T07:56:50;22.50;;;10.32;;
79790;SDS011;69278;52.220;5.172;2023-05-10T07:59:17;22.33;;;10.10;;
79790;SDS011;69278;52.220;5.172;2023-05-10T08:01:44;21.38;;;9.63;;
79790;SDS011;69278;52.220;5.172;2023-05-10T08:04:10;22.83;;;9.57;;
79790;SDS011;69278;52.220;5.172;2023-05-10T08:06:38;20.10;;;9.98;;
79790;SDS011;69278;52.220;5.172;2023-05-10T08:09:05;20.65;;;9.65;;
79790;SDS011;69278;52.220;5.172;2023-05-10T08:11:31;21.27;;;9.60;;
79790;SDS011;69278;52.220;5.172;2023-05-10T08:14:00;18.38;;;9.50;;
79790;SDS011;69278;52.220;5.172;2023-05-10T08:16:26;19.20;;;9.18;;
79790;SDS011;69278;52.220;5.172;2023-05-10T08:18:53;17.50;;;9.20;;
79790;SDS011;69278;52.220;5.172;2023-05-10T08:21:21;19.45;;;9.15;;
79790;SDS011;69278;52.220;5.172;2023-05-10T08:23:48;20.37;;;8.93;;
79790;SDS011;69278;52.220;5.172;2023-05-10T08:26:15;17.55;;;8.70;;
79790;SDS011;69278;52.220;5.172;2023-05-10T08:28:41;15.85;;;8.57;;
79790;SDS011;69278;52.220;5.172;2023-05-10T08:31:08;17.90;;;8.43;;
79790;SDS011;69278;52.220;5.172;2023-05-10T08:33:34;15.48;;;7.75;;
79790;SDS011;69278;52.220;5.172;2023-05-10T08:36:01;15.47;;;7.90;;
79790;SDS011;69278;52.220;5.172;2023-05-10T08:38:27;16.42;;;7.30;;
79790;SDS011;69278;52.220;5.172;2023-05-10T08:40:54;16.85;;;7.55;;
79790;SDS011;69278;52.220;5.172;2023-05-10T08:43:26;14.43;;;7.00;;
79790;SDS011;69278;52.220;5.172;2023-05-10T08:45:55;12.05;;;6.50;;
79790;SDS011;69278;52.220;5.172;2023-05-10T08:48:25;13.10;;;6.90;;
79790;SDS011;69278;52.220;5.172;2023-05-10T08:50:54;13.20;;;6.70;;
79790;SDS011;69278;52.220;5.172;2023-05-10T08:53:24;11.68;;;6.82;;
79790;SDS011;69278;52.220;5.172;2023-05-10T08:55:53;12.77;;;6.30;;
79790;SDS011;69278;52.220;5.172;2023-05-10T08:58:21;15.60;;;7.05;;
79790;SDS011;69278;52.220;5.172;2023-05-10T09:00:49;12.43;;;7.10;;
79790;SDS011;69278;52.220;5.172;2023-05-10T09:03:17;13.02;;;6.95;;
79790;SDS011;69278;52.220;5.172;2023-05-10T09:05:44;13.63;;;6.90;;
79790;SDS011;69278;52.220;5.172;2023-05-10T09:08:11;13.95;;;7.40;;
79790;SDS011;69278;52.220;5.172;2023-05-10T09:10:39;15.07;;;7.70;;
79790;SDS011;69278;52.220;5.172;2023-05-10T09:13:06;12.90;;;6.80;;
79790;SDS011;69278;52.220;5.172;2023-05-10T09:15:35;16.42;;;7.35;;
79790;SDS011;69278;52.220;5.172;2023-05-10T09:18:01;16.90;;;7.65;;
79790;SDS011;69278;52.220;5.172;2023-05-10T09:20:28;13.05;;;6.82;;
79790;SDS011;69278;52.220;5.172;2023-05-10T09:22:55;13.65;;;7.03;;
79790;SDS011;69278;52.220;5.172;2023-05-10T09:25:21;13.90;;;6.70;;
79790;SDS011;69278;52.220;5.172;2023-05-10T09:27:48;14.57;;;6.65;;
79790;SDS011;69278;52.220;5.172;2023-05-10T09:30:28;10.80;;;5.80;;
79790;SDS011;69278;52.220;5.172;2023-05-10T09:32:56;11.15;;;6.13;;
79790;SDS011;69278;52.220;5.172;2023-05-10T09:35:24;11.88;;;6.20;;
79790;SDS011;69278;52.220;5.172;2023-05-10T09:37:55;10.17;;;5.40;;
79790;SDS011;69278;52.220;5.172;2023-05-10T09:40:27;12.10;;;5.63;;
79790;SDS011;69278;52.220;5.172;2023-05-10T09:42:56;8.20;;;4.90;;
79790;SDS011;69278;52.220;5.172;2023-05-10T09:45:24;9.95;;;5.35;;
79790;SDS011;69278;52.220;5.172;2023-05-10T09:47:52;9.82;;;5.72;;
79790;SDS011;69278;52.220;5.172;2023-05-10T09:50:20;9.90;;;5.03;;
79790;SDS011;69278;52.220;5.172;2023-05-10T09:52:52;9.63;;;5.10;;
79790;SDS011;69278;52.220;5.172;2023-05-10T09:55:20;10.25;;;5.18;;
79790;SDS011;69278;52.220;5.172;2023-05-10T09:57:49;10.35;;;5.18;;
79790;SDS011;69278;52.220;5.172;2023-05-10T10:00:24;11.15;;;5.20;;
79790;SDS011;69278;52.220;5.172;2023-05-10T10:02:54;10.07;;;5.40;;
79790;SDS011;69278;52.220;5.172;2023-05-10T10:05:32;10.65;;;4.70;;
79790;SDS011;69278;52.220;5.172;2023-05-10T10:08:01;8.40;;;4.88;;
79790;SDS011;69278;52.220;5.172;2023-05-10T10:10:29;8.52;;;4.60;;
79790;SDS011;69278;52.220;5.172;2023-05-10T10:12:57;8.85;;;4.65;;
79790;SDS011;69278;52.220;5.172;2023-05-10T10:15:24;8.23;;;4.40;;
79790;SDS011;69278;52.220;5.172;2023-05-10T10:17:52;7.05;;;4.18;;
79790;SDS011;69278;52.220;5.172;2023-05-10T10:20:20;10.13;;;4.10;;
79790;SDS011;69278;52.220;5.172;2023-05-10T10:22:47;7.60;;;3.90;;
79790;SDS011;69278;52.220;5.172;2023-05-10T10:25:16;7.97;;;4.35;;
79790;SDS011;69278;52.220;5.172;2023-05-10T10:35:54;8.27;;;3.28;;
79790;SDS011;69278;52.220;5.172;2023-05-10T10:38:24;7.30;;;3.60;;
79790;SDS011;69278;52.220;5.172;2023-05-10T10:41:09;6.80;;;3.60;;
79790;SDS011;69278;52.220;5.172;2023-05-10T10:43:36;6.20;;;3.47;;
79790;SDS011;69278;52.220;5.172;2023-05-10T10:46:16;7.93;;;3.25;;
79790;SDS011;69278;52.220;5.172;2023-05-10T10:48:47;7.25;;;3.20;;
79790;SDS011;69278;52.220;5.172;2023-05-10T10:51:15;6.60;;;3.28;;
79790;SDS011;69278;52.220;5.172;2023-05-10T10:53:42;6.70;;;3.27;;
79790;SDS011;69278;52.220;5.172;2023-05-10T10:56:10;5.68;;;3.40;;
79790;SDS011;69278;52.220;5.172;2023-05-10T10:58:40;8.10;;;3.38;;
79790;SDS011;69278;52.220;5.172;2023-05-10T11:01:11;9.45;;;3.80;;
79790;SDS011;69278;52.220;5.172;2023-05-10T11:03:39;6.10;;;3.55;;
79790;SDS011;69278;52.220;5.172;2023-05-10T11:06:06;5.73;;;3.30;;
79790;SDS011;69278;52.220;5.172;2023-05-10T11:08:34;6.22;;;3.25;;
79790;SDS011;69278;52.220;5.172;2023-05-10T11:11:09;7.03;;;3.60;;
79790;SDS011;69278;52.220;5.172;2023-05-10T11:13:45;7.82;;;3.40;;
79790;SDS011;69278;52.220;5.172;2023-05-10T11:16:23;8.02;;;3.60;;
79790;SDS011;69278;52.220;5.172;2023-05-10T11:19:04;7.77;;;3.90;;
79790;SDS011;69278;52.220;5.172;2023-05-10T11:21:34;6.18;;;3.50;;
79790;SDS011;69278;52.220;5.172;2023-05-10T11:24:36;7.95;;;4.10;;
79790;SDS011;69278;52.220;5.172;2023-05-10T11:27:03;6.10;;;3.67;;
79790;SDS011;69278;52.220;5.172;2023-05-10T11:29:29;8.82;;;3.72;;
79790;SDS011;69278;52.220;5.172;2023-05-10T11:31:59;6.77;;;3.47;;
79790;SDS011;69278;52.220;5.172;2023-05-10T11:34:26;7.22;;;3.17;;
79790;SDS011;69278;52.220;5.172;2023-05-10T11:36:56;7.18;;;3.08;;
79790;SDS011;69278;52.220;5.172;2023-05-10T11:39:27;5.15;;;2.70;;
79790;SDS011;69278;52.220;5.172;2023-05-10T11:41:54;6.68;;;3.10;;
79790;SDS011;69278;52.220;5.172;2023-05-10T11:44:22;5.50;;;2.70;;
79790;SDS011;69278;52.220;5.172;2023-05-10T11:46:49;8.85;;;3.10;;
79790;SDS011;69278;52.220;5.172;2023-05-10T11:49:16;6.03;;;3.03;;
79790;SDS011;69278;52.220;5.172;2023-05-10T11:51:42;9.77;;;3.00;;
79790;SDS011;69278;52.220;5.172;2023-05-10T11:54:10;8.05;;;2.90;;
79790;SDS011;69278;52.220;5.172;2023-05-10T11:56:37;5.73;;;2.90;;
79790;SDS011;69278;52.220;5.172;2023-05-10T11:59:05;6.40;;;3.22;;
79790;SDS011;69278;52.220;5.172;2023-05-10T12:01:32;6.75;;;3.30;;
79790;SDS011;69278;52.220;5.172;2023-05-10T12:03:59;6.20;;;3.22;;
79790;SDS011;69278;52.220;5.172;2023-05-10T12:06:27;6.22;;;3.40;;
79790;SDS011;69278;52.220;5.172;2023-05-10T12:08:57;6.23;;;3.07;;
79790;SDS011;69278;52.220;5.172;2023-05-10T12:11:25;5.32;;;2.88;;
79790;SDS011;69278;52.220;5.172;2023-05-10T12:13:53;5.78;;;3.33;;
79790;SDS011;69278;52.220;5.172;2023-05-10T12:16:28;6.07;;;3.28;;
79790;SDS011;69278;52.220;5.172;2023-05-10T12:18:57;5.88;;;3.40;;
79790;SDS011;69278;52.220;5.172;2023-05-10T12:21:25;6.40;;;2.90;;
79790;SDS011;69278;52.220;5.172;2023-05-10T12:23:54;5.68;;;3.10;;
79790;SDS011;69278;52.220;5.172;2023-05-10T12:26:25;5.32;;;3.20;;
79790;SDS011;69278;52.220;5.172;2023-05-10T12:29:01;6.20;;;3.22;;
79790;SDS011;69278;52.220;5.172;2023-05-10T12:31:51;5.50;;;3.40;;
79790;SDS011;69278;52.220;5.172;2023-05-10T12:34:26;6.20;;;3.50;;
79790;SDS011;69278;52.220;5.172;2023-05-10T12:36:56;7.03;;;3.83;;
79790;SDS011;69278;52.220;5.172;2023-05-10T12:39:23;6.80;;;3.53;;
79790;SDS011;69278;52.220;5.172;2023-05-10T12:41:50;7.57;;;3.70;;
79790;SDS011;69278;52.220;5.172;2023-05-10T12:44:17;7.85;;;3.90;;
79790;SDS011;69278;52.220;5.172;2023-05-10T12:46:44;6.93;;;3.80;;
79790;SDS011;69278;52.220;5.172;2023-05-10T12:49:11;6.65;;;3.53;;
79790;SDS011;69278;52.220;5.172;2023-05-10T12:51:37;6.15;;;3.80;;
79790;SDS011;69278;52.220;5.172;2023-05-10T12:54:03;8.88;;;3.88;;
79790;SDS011;69278;52.220;5.172;2023-05-10T12:56:31;8.43;;;4.45;;
79790;SDS011;69278;52.220;5.172;2023-05-10T12:58:57;9.43;;;4.97;;
79790;SDS011;69278;52.220;5.172;2023-05-10T13:01:23;11.05;;;5.88;;
79790;SDS011;69278;52.220;5.172;2023-05-10T13:03:50;14.55;;;6.82;;
79790;SDS011;69278;52.220;5.172;2023-05-10T13:06:17;15.23;;;7.18;;
79790;SDS011;69278;52.220;5.172;2023-05-10T13:08:43;16.50;;;7.45;;
79790;SDS011;69278;52.220;5.172;2023-05-10T13:11:09;15.40;;;7.67;;
79790;SDS011;69278;52.220;5.172;2023-05-10T13:13:36;14.95;;;7.13;;
79790;SDS011;69278;52.220;5.172;2023-05-10T13:16:02;14.60;;;7.55;;
79790;SDS011;69278;52.220;5.172;2023-05-10T13:18:29;16.90;;;8.35;;
79790;SDS011;69278;52.220;5.172;2023-05-10T13:20:56;17.45;;;8.20;;
79790;SDS011;69278;52.220;5.172;2023-05-10T13:23:22;15.37;;;7.73;;
79790;SDS011;69278;52.220;5.172;2023-05-10T13:25:48;17.50;;;8.18;;
79790;SDS011;69278;52.220;5.172;2023-05-10T13:28:15;17.23;;;7.90;;
79790;SDS011;69278;52.220;5.172;2023-05-10T13:30:42;16.05;;;7.32;;
79790;SDS011;69278;52.220;5.172;2023-05-10T13:33:08;18.98;;;7.88;;
79790;SDS011;69278;52.220;5.172;2023-05-10T13:35:35;18.70;;;7.80;;
79790;SDS011;69278;52.220;5.172;2023-05-10T13:38:01;15.60;;;7.32;;
79790;SDS011;69278;52.220;5.172;2023-05-10T13:40:28;15.45;;;7.07;;
79790;SDS011;69278;52.220;5.172;2023-05-10T13:42:54;14.05;;;6.68;;
79790;SDS011;69278;52.220;5.172;2023-05-10T13:45:21;12.70;;;6.35;;
79790;SDS011;69278;52.220;5.172;2023-05-10T13:47:47;14.03;;;6.20;;
79790;SDS011;69278;52.220;5.172;2023-05-10T13:50:14;11.95;;;5.40;;
79790;SDS011;69278;52.220;5.172;2023-05-10T13:52:40;11.88;;;5.80;;
79790;SDS011;69278;52.220;5.172;2023-05-10T13:55:07;13.80;;;5.60;;
79790;SDS011;69278;52.220;5.172;2023-05-10T13:57:34;13.88;;;5.90;;
79790;SDS011;69278;52.220;5.172;2023-05-10T14:00:01;11.70;;;5.63;;
79790;SDS011;69278;52.220;5.172;2023-05-10T14:02:28;10.45;;;5.43;;
79790;SDS011;69278;52.220;5.172;2023-05-10T14:04:55;12.35;;;5.70;;
79790;SDS011;69278;52.220;5.172;2023-05-10T14:07:21;12.15;;;5.28;;
79790;SDS011;69278;52.220;5.172;2023-05-10T14:09:48;10.63;;;5.25;;
79790;SDS011;69278;52.220;5.172;2023-05-10T14:12:14;10.60;;;5.20;;
79790;SDS011;69278;52.220;5.172;2023-05-10T14:14:41;11.77;;;5.47;;
79790;SDS011;69278;52.220;5.172;2023-05-10T14:17:07;11.25;;;5.60;;
79790;SDS011;69278;52.220;5.172;2023-05-10T14:19:37;12.90;;;5.90;;
79790;SDS011;69278;52.220;5.172;2023-05-10T14:22:04;11.68;;;5.55;;
79790;SDS011;69278;52.220;5.172;2023-05-10T14:24:31;10.40;;;5.37;;
79790;SDS011;69278;52.220;5.172;2023-05-10T14:26:58;10.70;;;5.53;;
79790;SDS011;69278;52.220;5.172;2023-05-10T14:29:24;12.35;;;5.68;;
79790;SDS011;69278;52.220;5.172;2023-05-10T14:31:51;11.32;;;4.93;;
79790;SDS011;69278;52.220;5.172;2023-05-10T14:34:18;10.65;;;5.13;;
79790;SDS011;69278;52.220;5.172;2023-05-10T14:36:44;11.30;;;5.10;;
79790;SDS011;69278;52.220;5.172;2023-05-10T14:39:10;9.77;;;5.32;;
79790;SDS011;69278;52.220;5.172;2023-05-10T14:41:39;11.18;;;5.18;;
79790;SDS011;69278;52.220;5.172;2023-05-10T14:44:07;11.38;;;5.30;;
79790;SDS011;69278;52.220;5.172;2023-05-10T14:46:34;10.55;;;5.00;;
79790;SDS011;69278;52.220;5.172;2023-05-10T14:49:01;8.67;;;4.73;;
79790;SDS011;69278;52.220;5.172;2023-05-10T14:51:27;11.48;;;5.20;;
79790;SDS011;69278;52.220;5.172;2023-05-10T14:53:54;12.63;;;5.65;;
79790;SDS011;69278;52.220;5.172;2023-05-10T14:56:20;12.57;;;5.50;;
79790;SDS011;69278;52.220;5.172;2023-05-10T14:58:49;12.32;;;5.03;;
79790;SDS011;69278;52.220;5.172;2023-05-10T15:01:15;11.50;;;5.67;;